createdAt,value
2023-01-13T00:01:29.566Z,6.55
2023-01-13T00:04:55.190Z,7.40
2023-01-13T00:07:23.311Z,5.60
2023-01-13T00:09:51.463Z,5.10
2023-01-13T00:12:19.477Z,5.43
2023-01-13T00:14:47.860Z,6.25
2023-01-13T00:17:16.018Z,6.33
2023-01-13T00:19:45.153Z,5.90
2023-01-13T00:22:13.489Z,6.35
2023-01-13T00:24:41.619Z,6.30
2023-01-13T00:27:09.753Z,5.80
2023-01-13T00:29:38.025Z,5.53
2023-01-13T00:32:06.027Z,5.85
2023-01-13T00:34:34.227Z,6.10
2023-01-13T00:37:02.300Z,10.13
2023-01-13T00:39:30.416Z,9.68
2023-01-13T00:42:17.245Z,9.17
2023-01-13T00:44:45.690Z,9.82
2023-01-13T00:47:13.910Z,8.40
2023-01-13T00:49:42.292Z,8.07
2023-01-13T00:52:10.103Z,6.95
2023-01-13T00:54:38.383Z,6.93
2023-01-13T00:57:06.413Z,6.20
2023-01-13T00:59:34.728Z,5.88
2023-01-13T01:02:02.702Z,6.43
2023-01-13T01:04:31.835Z,6.75
2023-01-13T01:06:59.844Z,6.73
2023-01-13T01:09:33.154Z,6.72
2023-01-13T01:12:01.515Z,7.32
2023-01-13T01:14:29.785Z,7.32
2023-01-13T01:16:57.629Z,9.52
2023-01-13T01:19:25.875Z,10.53
2023-01-13T01:21:56.029Z,11.40
2023-01-13T01:24:24.296Z,11.40
2023-01-13T01:26:52.307Z,11.00
2023-01-13T01:29:20.686Z,11.65
2023-01-13T01:31:48.642Z,11.17
2023-01-13T01:34:16.921Z,11.88
2023-01-13T01:36:44.890Z,12.18
2023-01-13T01:39:13.067Z,11.38
2023-01-13T01:42:01.394Z,11.65
2023-01-13T01:45:02.405Z,11.47
2023-01-13T01:47:31.712Z,11.18
2023-01-13T01:50:03.171Z,11.60
2023-01-13T01:52:37.995Z,11.13
2023-01-13T01:55:29.340Z,10.32
2023-01-13T01:58:16.732Z,11.03
2023-01-13T02:00:45.130Z,9.82
2023-01-13T02:03:13.568Z,8.65
2023-01-13T02:05:42.137Z,7.88
2023-01-13T02:08:13.351Z,8.73
2023-01-13T02:10:45.394Z,8.57
2023-01-13T02:13:14.282Z,7.40
2023-01-13T02:15:58.929Z,10.02
2023-01-13T02:19:16.176Z,10.05
2023-01-13T02:33:18.712Z,8.82
2023-01-13T02:40:23.171Z,8.85
2023-01-13T02:43:48.384Z,8.23
2023-01-13T02:46:24.395Z,8.35
2023-01-13T02:48:55.018Z,9.55
2023-01-13T02:51:27.415Z,10.65
2023-01-13T02:54:05.211Z,11.07
2023-01-13T02:56:37.769Z,11.70
2023-01-13T02:59:07.076Z,9.82
2023-01-13T03:01:34.923Z,10.20
2023-01-13T03:04:35.646Z,11.35
2023-01-13T03:07:14.371Z,12.45
2023-01-13T03:09:51.121Z,12.00
2023-01-13T03:12:48.098Z,12.25
2023-01-13T03:15:40.896Z,11.80
2023-01-13T03:18:19.866Z,12.10
2023-01-13T03:21:15.832Z,14.13
2023-01-13T03:23:57.939Z,10.30
2023-01-13T03:27:11.443Z,11.30
2023-01-13T03:29:49.777Z,10.05
2023-01-13T03:32:37.739Z,8.85
2023-01-13T03:35:17.374Z,9.35
2023-01-13T03:37:50.395Z,11.93
2023-01-13T03:40:24.350Z,11.65
2023-01-13T03:43:20.084Z,11.43
2023-01-13T03:45:54.066Z,10.95
2023-01-13T03:48:26.710Z,12.23
2023-01-13T03:50:57.956Z,14.27
2023-01-13T03:53:32.998Z,14.07
2023-01-13T03:56:13.743Z,12.57
2023-01-13T03:58:48.744Z,11.98
2023-01-13T04:01:45.198Z,15.13
2023-01-13T04:04:21.471Z,12.40
2023-01-13T04:06:55.294Z,11.73
2023-01-13T04:09:41.935Z,10.75
2023-01-13T04:12:26.959Z,10.18
2023-01-13T04:14:56.550Z,10.32
2023-01-13T04:17:25.084Z,12.57
2023-01-13T04:19:53.234Z,11.07
2023-01-13T04:22:20.985Z,15.38
2023-01-13T04:24:49.199Z,14.68
2023-01-13T04:27:17.020Z,17.15
2023-01-13T04:29:45.175Z,14.37
2023-01-13T04:32:13.127Z,13.23
2023-01-13T04:34:41.344Z,13.07
2023-01-13T04:37:09.041Z,13.95
2023-01-13T04:39:37.557Z,13.48
2023-01-13T04:42:06.392Z,12.77
2023-01-13T04:44:36.001Z,15.10
2023-01-13T04:47:04.891Z,15.57
2023-01-13T04:49:33.698Z,14.05
2023-01-13T04:52:04.205Z,12.48
2023-01-13T04:54:32.239Z,13.37
2023-01-13T04:57:00.108Z,15.23
2023-01-13T04:59:28.181Z,13.90
2023-01-13T05:01:56.337Z,15.32
2023-01-13T05:04:24.476Z,18.52
2023-01-13T05:06:52.373Z,23.47
2023-01-13T05:09:20.530Z,23.63
2023-01-13T05:12:07.126Z,19.30
2023-01-13T05:14:54.119Z,15.32
2023-01-13T05:17:24.499Z,17.25
2023-01-13T05:19:52.587Z,15.40
2023-01-13T05:22:38.824Z,15.52
2023-01-13T05:25:28.614Z,16.35
2023-01-13T05:28:00.340Z,15.65
2023-01-13T05:30:33.610Z,16.20
2023-01-13T05:33:01.711Z,15.37
2023-01-13T05:35:30.218Z,16.50
2023-01-13T05:37:58.411Z,20.45
2023-01-13T05:40:45.073Z,22.70
2023-01-13T05:43:25.915Z,21.98
2023-01-13T05:45:59.705Z,19.13
2023-01-13T05:48:39.063Z,21.42
2023-01-13T05:51:10.261Z,17.70
2023-01-13T05:53:43.982Z,15.20
2023-01-13T05:56:12.481Z,16.25
2023-01-13T05:58:40.713Z,17.30
2023-01-13T06:01:14.075Z,16.13
2023-01-13T06:03:42.129Z,15.45
2023-01-13T06:06:10.513Z,13.60
2023-01-13T06:08:39.811Z,14.73
2023-01-13T06:11:08.575Z,13.60
2023-01-13T06:13:36.860Z,17.67
2023-01-13T06:16:05.565Z,15.52
2023-01-13T06:18:33.374Z,37.65
2023-01-13T06:21:01.404Z,34.22
2023-01-13T06:23:29.944Z,44.00
2023-01-13T06:26:15.966Z,23.00
2023-01-13T06:28:43.771Z,21.13
2023-01-13T06:31:12.594Z,21.48
2023-01-13T06:33:45.747Z,15.35
2023-01-13T06:36:19.289Z,18.13
2023-01-13T06:38:50.142Z,16.38
2023-01-13T06:41:39.843Z,14.68
2023-01-13T06:44:08.023Z,13.38
2023-01-13T06:46:36.699Z,14.43
2023-01-13T06:49:05.849Z,15.03
2023-01-13T06:51:34.386Z,18.38
2023-01-13T06:54:02.668Z,20.75
2023-01-13T06:56:31.183Z,31.23
2023-01-13T06:58:59.403Z,20.02
2023-01-13T07:01:28.100Z,22.30
2023-01-13T07:03:56.352Z,21.45
2023-01-13T07:06:25.502Z,22.05
2023-01-13T07:08:53.647Z,23.20
2023-01-13T07:11:22.120Z,22.92
2023-01-13T07:14:09.337Z,36.03
2023-01-13T07:16:37.973Z,29.08
2023-01-13T07:19:05.979Z,23.88
2023-01-13T07:21:34.491Z,18.85
2023-01-13T07:24:02.591Z,16.83
2023-01-13T07:26:31.019Z,17.37
2023-01-13T07:28:59.070Z,17.45
2023-01-13T07:31:28.027Z,19.27
2023-01-13T07:33:56.017Z,19.27
2023-01-13T07:36:24.404Z,19.92
2023-01-13T07:38:54.689Z,20.17
2023-01-13T07:41:44.408Z,19.55
2023-01-13T07:44:12.752Z,23.92
2023-01-13T07:46:47.740Z,21.02
2023-01-13T07:49:18.561Z,22.15
2023-01-13T07:52:15.558Z,20.57
2023-01-13T07:54:43.698Z,18.77
2023-01-13T07:57:16.542Z,17.70
2023-01-13T07:59:50.259Z,17.83
2023-01-13T08:02:22.498Z,20.13
2023-01-13T08:04:50.913Z,15.20
2023-01-13T08:07:19.463Z,15.98
2023-01-13T08:09:48.011Z,21.25
2023-01-13T08:12:35.146Z,16.38
2023-01-13T08:15:05.226Z,12.35
2023-01-13T08:17:35.908Z,14.50
2023-01-13T08:20:09.119Z,18.88
2023-01-13T08:22:42.740Z,20.13
2023-01-13T08:25:10.995Z,22.35
2023-01-13T08:27:42.048Z,19.17
2023-01-13T08:30:12.182Z,28.07
2023-01-13T08:32:40.601Z,17.23
2023-01-13T08:35:09.154Z,14.25
2023-01-13T08:37:37.947Z,13.18
2023-01-13T08:40:11.024Z,12.30
2023-01-13T08:42:48.430Z,12.73
2023-01-13T08:45:17.484Z,14.32
2023-01-13T08:47:46.336Z,14.23
2023-01-13T08:50:17.895Z,15.55
2023-01-13T08:52:51.798Z,15.80
2023-01-13T08:55:35.475Z,19.00
2023-01-13T08:58:37.577Z,17.00
2023-01-13T09:01:08.850Z,21.70
2023-01-13T09:03:39.975Z,21.58
2023-01-13T09:06:15.572Z,30.98
2023-01-13T09:08:54.505Z,15.40
2023-01-13T09:11:52.475Z,14.10
2023-01-13T09:14:25.179Z,12.98
2023-01-13T09:16:53.618Z,13.27
2023-01-13T09:19:22.428Z,13.30
2023-01-13T09:21:58.022Z,14.63
2023-01-13T09:24:27.675Z,14.90
2023-01-13T09:27:22.066Z,15.68
2023-01-13T09:32:36.770Z,13.85
2023-01-13T09:35:19.584Z,13.33
2023-01-13T09:37:54.050Z,15.48
2023-01-13T09:40:23.415Z,14.70
2023-01-13T09:43:32.166Z,13.75
2023-01-13T09:46:34.310Z,14.85
2023-01-13T09:49:05.746Z,14.37
2023-01-13T09:52:06.628Z,14.25
2023-01-13T09:54:46.735Z,15.63
2023-01-13T10:00:49.223Z,16.38
2023-01-13T10:04:17.405Z,16.97
2023-01-13T10:07:10.927Z,13.85
2023-01-13T10:13:19.699Z,14.45
2023-01-13T10:16:20.779Z,16.60
2023-01-13T10:18:56.144Z,14.67
2023-01-13T10:22:09.328Z,41.97
2023-01-13T10:25:22.332Z,19.58
2023-01-13T10:28:04.780Z,19.70
2023-01-13T10:30:43.351Z,17.35
2023-01-13T10:33:30.833Z,21.77
2023-01-13T10:36:12.764Z,24.85
2023-01-13T10:38:46.816Z,20.00
2023-01-13T10:44:55.945Z,20.25
2023-01-13T10:47:39.539Z,20.67
2023-01-13T10:50:10.743Z,18.92
2023-01-13T10:52:55.468Z,24.23
2023-01-13T10:55:39.082Z,23.58
2023-01-13T10:58:22.441Z,23.50
2023-01-13T11:01:05.993Z,25.60
2023-01-13T11:03:46.727Z,26.33
2023-01-13T11:06:36.039Z,25.88
2023-01-13T11:09:20.717Z,25.85
2023-01-13T11:11:56.532Z,32.22
2023-01-13T11:14:44.561Z,40.13
2023-01-13T11:17:36.554Z,22.67
2023-01-13T11:20:13.696Z,20.23
2023-01-13T11:22:53.568Z,27.98
2023-01-13T11:25:35.759Z,28.30
2023-01-13T11:28:17.499Z,32.43
2023-01-13T11:31:14.336Z,28.38
2023-01-13T11:34:01.580Z,32.40
2023-01-13T11:36:46.277Z,21.52
2023-01-13T11:39:29.733Z,16.90
2023-01-13T11:42:25.001Z,12.70
2023-01-13T11:45:04.561Z,11.40
2023-01-13T11:47:33.816Z,13.27
2023-01-13T11:50:03.217Z,12.32
2023-01-13T11:52:31.443Z,12.77
2023-01-13T11:55:09.744Z,12.30
2023-01-13T11:58:05.480Z,25.00
2023-01-13T12:00:56.850Z,19.70
2023-01-13T12:03:38.975Z,11.68
2023-01-13T12:06:15.210Z,11.73
2023-01-13T12:09:05.755Z,18.63
2023-01-13T12:12:21.729Z,16.00
2023-01-13T12:15:29.053Z,11.52
2023-01-13T12:21:37.188Z,33.15
2023-01-13T12:24:30.677Z,24.10
2023-01-13T12:27:12.609Z,15.48
2023-01-13T12:29:41.088Z,12.38
2023-01-13T12:32:24.075Z,12.00
2023-01-13T12:36:09.480Z,12.02
2023-01-13T13:03:28.239Z,11.75
2023-01-13T13:06:08.867Z,11.70
2023-01-13T13:13:14.477Z,11.02
2023-01-13T13:15:43.523Z,10.90
2023-01-13T13:18:32.444Z,11.15
2023-01-13T13:21:09.595Z,11.20
2023-01-13T13:23:46.947Z,10.97
2023-01-13T13:26:38.371Z,10.15
2023-01-13T13:29:07.487Z,10.48
2023-01-13T13:32:14.719Z,10.25
2023-01-13T13:34:46.039Z,12.02
2023-01-13T13:37:29.974Z,12.03
2023-01-13T13:40:24.543Z,11.40
2023-01-13T13:43:16.284Z,11.40
2023-01-13T13:46:11.808Z,10.48
2023-01-13T13:48:40.395Z,10.38
2023-01-13T13:51:29.761Z,10.50
2023-01-13T13:53:59.871Z,10.55
2023-01-13T13:56:29.775Z,12.20
2023-01-13T13:58:58.425Z,10.20
2023-01-13T14:01:33.614Z,11.82
2023-01-13T14:04:20.269Z,12.10
2023-01-13T14:07:05.412Z,10.85
2023-01-13T14:09:46.787Z,10.60
2023-01-13T14:12:23.498Z,12.77
2023-01-13T14:14:52.297Z,14.80
2023-01-13T14:17:26.535Z,13.40
2023-01-13T14:20:15.019Z,13.10
2023-01-13T14:22:51.483Z,14.75
2023-01-13T14:25:46.301Z,14.50
2023-01-13T14:28:14.286Z,13.50
2023-01-13T14:31:01.966Z,13.37
2023-01-13T14:33:43.453Z,13.50
2023-01-13T14:36:33.922Z,13.20
2023-01-13T14:39:04.889Z,14.13
2023-01-13T14:41:43.725Z,16.83
2023-01-13T14:44:51.524Z,16.90
2023-01-13T14:47:25.331Z,18.50
2023-01-13T14:50:11.734Z,19.27
2023-01-13T14:52:51.691Z,19.33
2023-01-13T14:55:32.431Z,19.15
2023-01-13T14:58:22.619Z,19.27
2023-01-13T15:00:52.383Z,18.65
2023-01-13T15:03:21.627Z,17.35
2023-01-13T15:05:52.578Z,14.40
2023-01-13T15:08:30.070Z,13.32
2023-01-13T15:11:08.786Z,12.93
2023-01-13T15:13:53.080Z,12.82
2023-01-13T15:16:25.554Z,13.15
2023-01-13T15:18:59.031Z,13.50
2023-01-13T15:21:27.248Z,13.40
2023-01-13T15:23:55.401Z,15.13
2023-01-13T15:26:29.811Z,13.52
2023-01-13T15:29:01.199Z,15.10
2023-01-13T15:31:29.681Z,12.68
2023-01-13T15:33:59.296Z,12.68
2023-01-13T15:36:30.627Z,12.87
2023-01-13T15:39:01.434Z,13.35
2023-01-13T15:41:48.336Z,14.05
2023-01-13T15:44:36.040Z,12.02
2023-01-13T15:47:06.783Z,12.98
2023-01-13T15:49:41.619Z,12.60
2023-01-13T15:52:21.918Z,12.90
2023-01-13T15:54:51.530Z,13.48
2023-01-13T15:57:30.853Z,12.77
2023-01-13T16:00:03.129Z,31.83
2023-01-13T16:02:34.968Z,73.87
2023-01-13T16:05:03.537Z,36.30
2023-01-13T16:07:31.768Z,14.32
2023-01-13T16:16:19.214Z,14.67
2023-01-13T16:18:47.239Z,27.88
2023-01-13T16:21:16.059Z,40.10
2023-01-13T16:23:44.111Z,29.15
2023-01-13T16:26:22.222Z,22.92
2023-01-13T16:28:52.673Z,16.97
2023-01-13T16:31:32.418Z,14.77
2023-01-13T16:34:02.545Z,17.30
2023-01-13T16:37:03.115Z,13.38
2023-01-13T16:39:31.470Z,13.77
2023-01-13T16:41:59.893Z,14.63
2023-01-13T16:44:27.825Z,18.88
2023-01-13T16:46:59.242Z,13.60
2023-01-13T16:49:27.234Z,14.57
2023-01-13T16:51:55.388Z,13.60
2023-01-13T16:54:23.394Z,10.83
2023-01-13T16:56:51.913Z,11.75
2023-01-13T16:59:20.045Z,15.10
2023-01-13T17:01:48.585Z,14.70
2023-01-13T17:04:19.619Z,13.73
2023-01-13T17:07:11.064Z,14.30
2023-01-13T17:09:39.248Z,14.18
2023-01-13T17:12:07.530Z,12.13
2023-01-13T17:14:35.703Z,15.38
2023-01-13T17:17:04.334Z,12.45
2023-01-13T17:19:32.400Z,12.37
2023-01-13T17:22:00.744Z,12.05
2023-01-13T17:24:32.107Z,13.27
2023-01-13T17:27:00.640Z,14.15
2023-01-13T17:29:28.915Z,12.15
2023-01-13T17:31:57.596Z,14.07
2023-01-13T17:34:25.432Z,12.88
2023-01-13T17:36:54.228Z,12.23
2023-01-13T17:39:24.975Z,16.55
2023-01-13T17:41:56.439Z,14.07
2023-01-13T17:44:28.302Z,14.53
2023-01-13T17:47:04.202Z,13.98
2023-01-13T17:49:42.593Z,16.10
2023-01-13T17:52:40.833Z,16.20
2023-01-13T17:55:11.167Z,15.63
2023-01-13T17:57:39.006Z,22.63
2023-01-13T18:00:08.546Z,21.45
2023-01-13T18:02:43.015Z,21.73
2023-01-13T18:05:13.074Z,17.75
2023-01-13T18:07:40.927Z,16.13
2023-01-13T18:10:09.942Z,21.30
2023-01-13T18:12:38.052Z,22.05
2023-01-13T18:15:07.580Z,16.73
2023-01-13T18:20:58.782Z,13.80
2023-01-13T18:23:56.796Z,15.47
2023-01-13T18:26:47.060Z,14.77
2023-01-13T18:29:22.354Z,15.98
2023-01-13T18:31:55.612Z,16.23
2023-01-13T18:34:23.490Z,15.73
2023-01-13T18:36:51.770Z,17.10
2023-01-13T18:39:20.215Z,14.70
2023-01-13T18:42:06.905Z,15.10
2023-01-13T18:44:36.983Z,13.55
2023-01-13T18:47:09.156Z,14.23
2023-01-13T18:49:37.296Z,14.63
2023-01-13T18:52:05.973Z,13.77
2023-01-13T18:54:34.245Z,15.55
2023-01-13T18:57:03.269Z,15.30
2023-01-13T18:59:33.606Z,16.02
2023-01-13T19:02:09.977Z,16.58
2023-01-13T19:04:38.179Z,18.47
2023-01-13T19:07:06.626Z,17.90
2023-01-13T19:09:34.415Z,16.45
2023-01-13T19:12:08.911Z,14.13
2023-01-13T19:14:40.172Z,19.40
2023-01-13T19:17:13.577Z,16.23
2023-01-13T19:19:44.984Z,16.65
2023-01-13T19:22:19.167Z,15.68
2023-01-13T19:24:50.807Z,15.52
2023-01-13T19:27:21.086Z,16.98
2023-01-13T19:29:52.510Z,16.25
2023-01-13T19:32:22.505Z,16.92
2023-01-13T19:34:51.571Z,18.52
2023-01-13T19:37:20.063Z,15.35
2023-01-13T19:39:48.189Z,18.70
2023-01-13T19:42:34.698Z,19.30
2023-01-13T19:45:21.028Z,23.70
2023-01-13T19:47:50.589Z,27.10
2023-01-13T19:50:18.347Z,31.20
2023-01-13T19:52:47.199Z,30.83
2023-01-13T19:55:20.147Z,28.40
2023-01-13T19:57:48.432Z,30.70
2023-01-13T20:00:21.284Z,26.27
2023-01-13T20:02:52.417Z,20.77
2023-01-13T20:05:24.801Z,18.23
2023-01-13T20:07:53.608Z,18.03
2023-01-13T20:10:22.811Z,19.98
2023-01-13T20:12:51.400Z,19.15
2023-01-13T20:15:19.177Z,20.30
2023-01-13T20:17:48.080Z,19.33
2023-01-13T20:20:17.125Z,19.57
2023-01-13T20:22:45.573Z,19.15
2023-01-13T20:25:17.664Z,20.10
2023-01-13T20:27:47.146Z,22.55
2023-01-13T20:30:15.792Z,21.13
2023-01-13T20:32:44.613Z,19.20
2023-01-13T20:35:12.438Z,20.05
2023-01-13T20:37:42.858Z,18.52
2023-01-13T20:40:16.330Z,20.33
2023-01-13T20:42:48.069Z,23.02
2023-01-13T20:45:21.212Z,23.23
2023-01-13T20:47:50.156Z,24.10
2023-01-13T20:50:18.481Z,24.50
2023-01-13T20:52:47.602Z,22.88
2023-01-13T20:55:15.812Z,24.88
2023-01-13T20:57:48.925Z,26.63
2023-01-13T21:00:17.408Z,28.88
2023-01-13T21:02:45.897Z,28.10
2023-01-13T21:05:14.738Z,28.25
2023-01-13T21:07:43.353Z,27.63
2023-01-13T21:10:11.979Z,28.50
2023-01-13T21:12:59.127Z,28.15
2023-01-13T21:15:27.966Z,25.15
2023-01-13T21:18:14.521Z,24.55
2023-01-13T21:20:42.411Z,25.98
2023-01-13T21:23:11.259Z,24.23
2023-01-13T21:25:40.582Z,23.60
2023-01-13T21:28:12.343Z,19.17
2023-01-13T21:30:40.783Z,20.75
2023-01-13T21:33:13.519Z,20.95
2023-01-13T21:35:41.718Z,23.47
2023-01-13T21:38:11.575Z,24.33
2023-01-13T21:40:39.720Z,22.52
2023-01-13T21:43:30.101Z,25.00
2023-01-13T21:46:16.522Z,24.50
2023-01-13T21:48:45.020Z,23.48
2023-01-13T21:51:12.790Z,25.27
2023-01-13T21:53:41.071Z,24.73
2023-01-13T21:56:08.672Z,26.38
2023-01-13T21:58:39.204Z,26.13
2023-01-13T22:01:07.188Z,26.40
2023-01-13T22:03:55.439Z,26.88
2023-01-13T22:06:24.739Z,25.30
2023-01-13T22:08:56.182Z,25.60
2023-01-13T22:11:24.097Z,26.75
2023-01-13T22:14:07.913Z,27.10
2023-01-13T22:16:42.590Z,26.38
2023-01-13T22:19:11.333Z,22.42
2023-01-13T22:21:39.659Z,20.85
2023-01-13T22:24:08.336Z,21.45
2023-01-13T22:26:36.365Z,21.70
2023-01-13T22:29:04.660Z,21.33
2023-01-13T22:31:32.833Z,23.27
2023-01-13T22:34:00.970Z,24.95
2023-01-13T22:36:28.782Z,25.10
2023-01-13T22:38:57.306Z,22.08
2023-01-13T22:41:25.083Z,22.52
2023-01-13T22:43:53.615Z,22.33
2023-01-13T22:46:22.610Z,22.40
2023-01-13T22:48:54.183Z,23.65
2023-01-13T22:51:23.177Z,27.17
2023-01-13T22:53:51.681Z,25.98
2023-01-13T22:56:22.401Z,27.52
2023-01-13T22:58:55.224Z,24.42
2023-01-13T23:01:24.339Z,26.52
2023-01-13T23:03:53.127Z,23.85
2023-01-13T23:06:23.876Z,28.65
2023-01-13T23:08:52.241Z,31.98
2023-01-13T23:11:21.885Z,32.53
2023-01-13T23:13:50.977Z,31.65
2023-01-13T23:16:21.588Z,25.33
2023-01-13T23:18:50.304Z,23.88
2023-01-13T23:21:22.833Z,19.33
2023-01-13T23:23:51.223Z,18.10
2023-01-13T23:26:19.962Z,18.40
2023-01-13T23:28:49.716Z,16.95
2023-01-13T23:31:22.493Z,19.33
2023-01-13T23:33:50.730Z,17.17
2023-01-13T23:36:24.010Z,18.60
2023-01-13T23:38:53.496Z,18.88
2023-01-13T23:41:23.942Z,18.38
2023-01-13T23:43:55.580Z,18.38
2023-01-13T23:46:24.360Z,17.92
2023-01-13T23:48:52.883Z,18.38
2023-01-13T23:51:23.485Z,18.63
2023-01-13T23:53:52.073Z,18.10
2023-01-13T23:56:25.567Z,17.20
2023-01-13T23:58:54.603Z,17.10
